createdAt,value
2019-05-26T00:00:51.133Z,993.95
2019-05-26T00:01:51.087Z,993.90
2019-05-26T00:02:51.093Z,993.90
2019-05-26T00:03:51.086Z,993.92
2019-05-26T00:04:51.070Z,993.90
2019-05-26T00:05:51.059Z,993.92
2019-05-26T00:06:51.062Z,993.90
2019-05-26T00:07:51.024Z,993.96
2019-05-26T00:08:51.012Z,993.93
2019-05-26T00:09:51.004Z,993.91
2019-05-26T00:10:51.034Z,993.94
2019-05-26T00:11:50.992Z,993.95
2019-05-26T00:12:50.991Z,993.88
2019-05-26T00:13:50.963Z,993.89
2019-05-26T00:14:50.960Z,993.89
2019-05-26T00:15:50.986Z,993.93
2019-05-26T00:16:50.924Z,993.92
2019-05-26T00:17:50.909Z,993.90
2019-05-26T00:18:50.926Z,993.86
2019-05-26T00:19:50.897Z,993.89
2019-05-26T00:20:50.916Z,993.88
2019-05-26T00:21:50.854Z,993.89
2019-05-26T00:22:50.857Z,993.85
2019-05-26T00:23:50.858Z,993.86
2019-05-26T00:24:50.843Z,993.85
2019-05-26T00:25:50.849Z,993.95
2019-05-26T00:26:50.846Z,993.86
2019-05-26T00:27:50.808Z,993.90
2019-05-26T00:28:50.791Z,993.87
2019-05-26T00:29:50.767Z,993.87
2019-05-26T00:30:50.774Z,993.89
2019-05-26T00:31:50.782Z,993.87
2019-05-26T00:32:50.744Z,993.93
2019-05-26T00:33:50.747Z,993.83
2019-05-26T00:34:50.727Z,993.91
2019-05-26T00:35:50.705Z,993.88
2019-05-26T00:36:50.737Z,993.87
2019-05-26T00:37:50.967Z,993.90
2019-05-26T00:38:50.700Z,993.89
2019-05-26T00:39:50.666Z,993.90
2019-05-26T00:40:50.664Z,993.84
2019-05-26T00:41:50.683Z,993.85
2019-05-26T00:42:50.635Z,993.81
2019-05-26T00:43:50.631Z,993.83
2019-05-26T00:44:50.630Z,993.74
2019-05-26T00:45:50.613Z,993.76
2019-05-26T00:46:50.582Z,993.75
2019-05-26T00:47:50.587Z,993.75
2019-05-26T00:48:50.615Z,993.72
2019-05-26T00:49:50.588Z,993.74
2019-05-26T00:50:50.558Z,993.82
2019-05-26T00:51:50.541Z,993.70
2019-05-26T00:52:50.523Z,993.75
2019-05-26T00:53:50.503Z,993.70
2019-05-26T00:54:50.506Z,993.76
2019-05-26T00:55:50.500Z,993.65
2019-05-26T00:56:50.503Z,993.66
2019-05-26T00:57:50.463Z,993.70
2019-05-26T00:58:50.471Z,993.69
2019-05-26T00:59:50.448Z,993.70
2019-05-26T01:00:50.449Z,993.71
2019-05-26T01:01:50.451Z,993.68
2019-05-26T01:02:50.412Z,993.67
2019-05-26T01:03:50.407Z,993.66
2019-05-26T01:04:50.399Z,993.64
2019-05-26T01:05:50.385Z,993.66
2019-05-26T01:06:50.427Z,993.69
2019-05-26T01:08:05.212Z,993.70
2019-05-26T01:08:51.351Z,993.69
2019-05-26T01:09:50.349Z,993.62
2019-05-26T01:10:50.338Z,993.58
2019-05-26T01:11:50.352Z,993.64
2019-05-26T01:12:50.328Z,993.65
2019-05-26T01:13:50.305Z,993.64
2019-05-26T01:14:50.280Z,993.59
2019-05-26T01:15:50.277Z,993.56
2019-05-26T01:16:50.291Z,993.59
2019-05-26T01:17:50.279Z,993.60
2019-05-26T01:18:50.245Z,993.60
2019-05-26T01:19:50.231Z,993.63
2019-05-26T01:20:50.219Z,993.70
2019-05-26T01:21:50.247Z,993.67
2019-05-26T01:22:53.614Z,993.60
2019-05-26T01:23:50.190Z,993.64
2019-05-26T01:24:50.175Z,993.58
2019-05-26T01:25:50.155Z,993.61
2019-05-26T01:26:50.157Z,993.59
2019-05-26T01:27:50.175Z,993.65
2019-05-26T01:28:50.150Z,993.58
2019-05-26T01:29:50.126Z,993.58
2019-05-26T01:30:50.133Z,993.60
2019-05-26T01:31:50.093Z,993.56
2019-05-26T01:32:50.109Z,993.55
2019-05-26T01:33:50.059Z,993.54
2019-05-26T01:34:50.122Z,993.55
2019-05-26T01:35:50.039Z,993.55
2019-05-26T01:36:50.059Z,993.52
2019-05-26T01:37:50.061Z,993.55
2019-05-26T01:38:50.029Z,993.53
2019-05-26T01:39:50.008Z,993.49
2019-05-26T01:40:49.994Z,993.56
2019-05-26T01:41:49.965Z,993.54
2019-05-26T01:42:50.005Z,993.64
2019-05-26T01:43:49.960Z,993.58
2019-05-26T01:44:49.944Z,993.65
2019-05-26T01:45:49.944Z,993.65
2019-05-26T01:46:49.946Z,993.61
2019-05-26T01:47:49.934Z,993.65
2019-05-26T01:48:49.920Z,993.64
2019-05-26T01:49:49.902Z,993.67
2019-05-26T01:50:49.893Z,993.65
2019-05-26T01:51:49.882Z,993.60
2019-05-26T01:52:49.877Z,993.67
2019-05-26T01:53:49.851Z,993.68
2019-05-26T01:54:49.838Z,993.65
2019-05-26T01:55:49.827Z,993.61
2019-05-26T01:56:49.833Z,993.71
2019-05-26T01:57:49.833Z,993.68
2019-05-26T01:58:49.802Z,993.71
2019-05-26T01:59:49.783Z,993.72
2019-05-26T02:00:49.779Z,993.70
2019-05-26T02:01:49.751Z,993.69
2019-05-26T02:02:49.780Z,993.73
2019-05-26T02:03:49.732Z,993.70
2019-05-26T02:04:49.735Z,993.63
2019-05-26T02:05:49.726Z,993.67
2019-05-26T02:06:49.715Z,993.64
2019-05-26T02:07:49.700Z,993.64
2019-05-26T02:08:49.709Z,993.63
2019-05-26T02:09:49.673Z,993.68
2019-05-26T02:10:49.657Z,993.62
2019-05-26T02:11:49.659Z,993.67
2019-05-26T02:12:49.634Z,993.64
2019-05-26T02:13:49.650Z,993.70
2019-05-26T02:14:49.624Z,993.63
2019-05-26T02:15:49.612Z,993.65
2019-05-26T02:16:49.605Z,993.61
2019-05-26T02:17:49.642Z,993.65
2019-05-26T02:18:49.597Z,993.72
2019-05-26T02:19:49.578Z,993.72
2019-05-26T02:20:49.565Z,993.72
2019-05-26T02:21:49.542Z,993.70
2019-05-26T02:22:49.537Z,993.68
2019-05-26T02:23:49.534Z,993.74
2019-05-26T02:24:49.511Z,993.70
2019-05-26T02:25:49.507Z,993.71
2019-05-26T02:26:49.486Z,993.74
2019-05-26T02:27:49.494Z,993.70
2019-05-26T02:28:49.497Z,993.70
2019-05-26T02:29:49.448Z,993.69
2019-05-26T02:30:49.437Z,993.69
2019-05-26T02:31:49.450Z,993.67
2019-05-26T02:32:49.429Z,993.63
2019-05-26T02:33:49.446Z,993.58
2019-05-26T02:34:49.408Z,993.57
2019-05-26T02:35:49.395Z,993.57
2019-05-26T02:36:49.395Z,993.60
2019-05-26T02:37:49.375Z,993.57
2019-05-26T02:39:00.984Z,993.61
2019-05-26T02:39:50.376Z,993.56
2019-05-26T02:40:49.343Z,993.57
2019-05-26T02:41:49.327Z,993.63
2019-05-26T02:42:49.423Z,993.58
2019-05-26T02:43:49.299Z,993.59
2019-05-26T02:44:49.309Z,993.62
2019-05-26T02:45:49.285Z,993.60
2019-05-26T02:46:49.382Z,993.57
2019-05-26T02:47:49.273Z,993.52
2019-05-26T02:48:49.274Z,993.57
2019-05-26T02:49:49.237Z,993.57
2019-05-26T02:50:49.214Z,993.61
2019-05-26T02:51:49.198Z,993.63
2019-05-26T02:52:49.228Z,993.57
2019-05-26T02:53:49.227Z,993.59
2019-05-26T02:54:49.200Z,993.62
2019-05-26T02:55:49.175Z,993.56
2019-05-26T02:56:49.164Z,993.59
2019-05-26T02:57:49.152Z,993.52
2019-05-26T02:58:49.135Z,993.52
2019-05-26T02:59:49.175Z,993.55
2019-05-26T03:00:49.091Z,993.46
2019-05-26T03:02:02.010Z,993.55
2019-05-26T03:02:50.080Z,993.54
2019-05-26T03:03:49.096Z,993.50
2019-05-26T03:04:49.098Z,993.56
2019-05-26T03:05:49.037Z,993.48
2019-05-26T03:06:49.052Z,993.52
2019-05-26T03:07:49.028Z,993.49
2019-05-26T03:08:49.023Z,993.51
2019-05-26T03:09:49.026Z,993.45
2019-05-26T03:10:48.997Z,993.48
2019-05-26T03:11:49.000Z,993.53
2019-05-26T03:12:48.980Z,993.46
2019-05-26T03:13:48.963Z,993.48
2019-05-26T03:14:48.984Z,993.52
2019-05-26T03:15:48.944Z,993.47
2019-05-26T03:16:48.927Z,993.53
2019-05-26T03:17:48.920Z,993.53
2019-05-26T03:18:48.896Z,993.49
2019-05-26T03:19:48.932Z,993.54
2019-05-26T03:20:48.890Z,993.43
2019-05-26T03:21:48.890Z,993.47
2019-05-26T03:22:48.885Z,993.46
2019-05-26T03:23:48.854Z,993.45
2019-05-26T03:24:48.865Z,993.44
2019-05-26T03:25:48.834Z,993.48
2019-05-26T03:26:48.829Z,993.42
2019-05-26T03:27:48.830Z,993.46
2019-05-26T03:28:48.796Z,993.50
2019-05-26T03:29:48.811Z,993.43
2019-05-26T03:30:48.792Z,993.36
2019-05-26T03:31:48.781Z,993.39
2019-05-26T03:32:48.781Z,993.42
2019-05-26T03:33:48.749Z,993.36
2019-05-26T03:34:48.779Z,993.37
2019-05-26T03:35:48.742Z,993.39
2019-05-26T03:36:48.702Z,993.35
2019-05-26T03:37:48.722Z,993.38
2019-05-26T03:38:48.683Z,993.37
2019-05-26T03:39:48.693Z,993.40
2019-05-26T03:40:48.665Z,993.37
2019-05-26T03:41:48.669Z,993.37
2019-05-26T03:42:48.643Z,993.39
2019-05-26T03:43:48.634Z,993.37
2019-05-26T03:44:48.623Z,993.39
2019-05-26T03:45:48.613Z,993.41
2019-05-26T03:46:48.605Z,993.37
2019-05-26T03:47:48.587Z,993.47
2019-05-26T03:48:48.582Z,993.40
2019-05-26T03:49:48.563Z,993.36
2019-05-26T03:50:48.562Z,993.33
2019-05-26T03:51:48.561Z,993.38
2019-05-26T03:52:48.534Z,993.34
2019-05-26T03:53:48.594Z,993.36
2019-05-26T03:54:48.501Z,993.35
2019-05-26T03:55:48.545Z,993.34
2019-05-26T03:56:48.485Z,993.36
2019-05-26T03:57:48.469Z,993.35
2019-05-26T03:58:48.481Z,993.34
2019-05-26T03:59:48.467Z,993.38
2019-05-26T04:00:48.461Z,993.36
2019-05-26T04:01:48.448Z,993.41
2019-05-26T04:02:48.428Z,993.41
2019-05-26T04:03:48.420Z,993.39
2019-05-26T04:04:48.429Z,993.38
2019-05-26T04:05:48.423Z,993.39
2019-05-26T04:06:48.361Z,993.40
2019-05-26T04:07:48.367Z,993.41
2019-05-26T04:08:48.340Z,993.46
2019-05-26T04:10:03.871Z,993.42
2019-05-26T04:10:49.371Z,993.44
2019-05-26T04:11:48.311Z,993.50
2019-05-26T04:12:48.322Z,993.44
2019-05-26T04:13:48.303Z,993.42
2019-05-26T04:14:48.401Z,993.41
2019-05-26T04:15:48.297Z,993.42
2019-05-26T04:16:48.303Z,993.41
2019-05-26T04:17:48.241Z,993.43
2019-05-26T04:18:48.248Z,993.41
2019-05-26T04:19:48.261Z,993.36
2019-05-26T04:20:48.268Z,993.37
2019-05-26T04:21:48.209Z,993.37
2019-05-26T04:22:48.211Z,993.33
2019-05-26T04:23:48.195Z,993.30
2019-05-26T04:24:48.176Z,993.32
2019-05-26T04:25:48.185Z,993.30
2019-05-26T04:26:48.170Z,993.36
2019-05-26T04:27:48.139Z,993.29
2019-05-26T04:28:48.142Z,993.32
2019-05-26T04:29:48.141Z,993.41
2019-05-26T04:30:48.135Z,993.36
2019-05-26T04:31:48.096Z,993.35
2019-05-26T04:32:48.086Z,993.36
2019-05-26T04:33:48.085Z,993.36
2019-05-26T04:34:48.067Z,993.34
2019-05-26T04:35:48.086Z,993.31
2019-05-26T04:36:48.063Z,993.30
2019-05-26T04:37:48.033Z,993.27
2019-05-26T04:38:48.037Z,993.27
2019-05-26T04:39:48.015Z,993.28
2019-05-26T04:40:48.058Z,993.29
2019-05-26T04:41:47.996Z,993.23
2019-05-26T04:42:47.979Z,993.23
2019-05-26T04:43:47.966Z,993.21
2019-05-26T04:44:47.970Z,993.23
2019-05-26T04:45:47.970Z,993.26
2019-05-26T04:46:47.932Z,993.27
2019-05-26T04:47:47.942Z,993.24
2019-05-26T04:48:47.934Z,993.21
2019-05-26T04:49:47.907Z,993.26
2019-05-26T04:50:47.906Z,993.27
2019-05-26T04:51:47.929Z,993.22
2019-05-26T04:53:04.691Z,993.22
2019-05-26T04:53:48.851Z,993.24
2019-05-26T04:54:47.868Z,993.26
2019-05-26T04:55:47.845Z,993.29
2019-05-26T04:56:47.862Z,993.24
2019-05-26T04:57:47.816Z,993.25
2019-05-26T04:58:47.836Z,993.33
2019-05-26T04:59:47.802Z,993.32
2019-05-26T05:00:47.801Z,993.28
2019-05-26T05:01:47.797Z,993.29
2019-05-26T05:02:47.791Z,993.24
2019-05-26T05:03:47.752Z,993.23
2019-05-26T05:04:47.749Z,993.25
2019-05-26T05:05:47.727Z,993.22
2019-05-26T05:06:47.754Z,993.25
2019-05-26T05:07:47.721Z,993.26
2019-05-26T05:08:47.698Z,993.25
2019-05-26T05:09:47.696Z,993.27
2019-05-26T05:10:47.678Z,993.29
2019-05-26T05:11:47.701Z,993.32
2019-05-26T05:12:47.647Z,993.30
2019-05-26T05:13:47.639Z,993.26
2019-05-26T05:14:47.640Z,993.28
2019-05-26T05:15:47.627Z,993.30
2019-05-26T05:16:47.646Z,993.29
2019-05-26T05:17:47.598Z,993.36
2019-05-26T05:18:47.591Z,993.29
2019-05-26T05:19:47.586Z,993.22
2019-05-26T05:20:47.591Z,993.26
2019-05-26T05:21:47.588Z,993.30
2019-05-26T05:22:47.538Z,993.24
2019-05-26T05:23:47.558Z,993.28
2019-05-26T05:24:47.526Z,993.23
2019-05-26T05:25:47.505Z,993.28
2019-05-26T05:26:47.531Z,993.26
2019-05-26T05:27:47.488Z,993.23
2019-05-26T05:28:47.481Z,993.24
2019-05-26T05:29:47.458Z,993.23
2019-05-26T05:30:47.457Z,993.15
2019-05-26T05:31:47.478Z,993.22
2019-05-26T05:32:47.425Z,993.23
2019-05-26T05:33:47.414Z,993.26
2019-05-26T05:34:47.421Z,993.24
2019-05-26T05:35:47.411Z,993.23
2019-05-26T05:36:47.406Z,993.24
2019-05-26T05:37:47.388Z,993.24
2019-05-26T05:38:47.374Z,993.19
2019-05-26T05:39:47.352Z,993.25
2019-05-26T05:40:59.123Z,993.25
2019-05-26T05:41:48.353Z,993.23
2019-05-26T05:42:47.314Z,993.26
2019-05-26T05:43:47.320Z,993.23
2019-05-26T05:44:47.302Z,993.24
2019-05-26T05:45:47.294Z,993.18
2019-05-26T05:46:47.308Z,993.26
2019-05-26T05:47:47.260Z,993.24
2019-05-26T05:48:47.252Z,993.23
2019-05-26T05:49:47.244Z,993.26
2019-05-26T05:50:47.233Z,993.21
2019-05-26T05:51:47.255Z,993.18
2019-05-26T05:52:47.209Z,993.22
2019-05-26T05:53:47.220Z,993.26
2019-05-26T05:54:47.200Z,993.24
2019-05-26T05:55:47.186Z,993.23
2019-05-26T05:56:47.279Z,993.29
2019-05-26T05:57:47.150Z,993.29
2019-05-26T05:58:47.161Z,993.32
2019-05-26T05:59:47.140Z,993.25
2019-05-26T06:00:47.140Z,993.31
2019-05-26T06:01:47.131Z,993.32
2019-05-26T06:02:47.119Z,993.32
2019-05-26T06:03:47.083Z,993.30
2019-05-26T06:04:47.081Z,993.31
2019-05-26T06:05:47.082Z,993.27
2019-05-26T06:06:47.084Z,993.23
2019-05-26T06:07:47.070Z,993.25
2019-05-26T06:08:47.045Z,993.23
2019-05-26T06:09:47.024Z,993.27
2019-05-26T06:10:47.032Z,993.36
2019-05-26T06:11:47.026Z,993.29
2019-05-26T06:12:47.056Z,993.28
2019-05-26T06:13:46.986Z,993.32
2019-05-26T06:14:46.990Z,993.37
2019-05-26T06:15:46.959Z,993.35
2019-05-26T06:16:46.981Z,993.36
2019-05-26T06:17:46.943Z,993.41
2019-05-26T06:18:46.931Z,993.37
2019-05-26T06:19:46.915Z,993.32
2019-05-26T06:20:46.933Z,993.34
2019-05-26T06:21:46.953Z,993.36
2019-05-26T06:22:46.899Z,993.28
2019-05-26T06:23:46.882Z,993.34
2019-05-26T06:24:46.866Z,993.30
2019-05-26T06:25:46.852Z,993.20
2019-05-26T06:26:46.873Z,993.19
2019-05-26T06:27:46.844Z,993.17
2019-05-26T06:28:46.845Z,993.14
2019-05-26T06:29:58.515Z,993.18
2019-05-26T06:30:47.835Z,993.19
2019-05-26T06:31:46.804Z,993.14
2019-05-26T06:32:46.807Z,993.07
2019-05-26T06:33:46.775Z,993.15
2019-05-26T06:34:46.801Z,993.19
2019-05-26T06:35:46.810Z,993.16
2019-05-26T06:36:46.758Z,993.14
2019-05-26T06:37:46.757Z,993.20
2019-05-26T06:38:46.725Z,993.20
2019-05-26T06:39:46.717Z,993.20
2019-05-26T06:40:46.717Z,993.13
2019-05-26T06:41:46.742Z,993.14
2019-05-26T06:42:46.694Z,993.24
2019-05-26T06:43:46.683Z,993.21
2019-05-26T06:44:53.717Z,993.26
2019-05-26T06:45:47.669Z,993.26
2019-05-26T06:46:46.675Z,993.21
2019-05-26T06:47:46.635Z,993.24
2019-05-26T06:48:46.643Z,993.25
2019-05-26T06:49:46.625Z,993.28
2019-05-26T06:50:46.617Z,993.29
2019-05-26T06:51:46.621Z,993.29
2019-05-26T06:52:46.594Z,993.24
2019-05-26T06:53:46.583Z,993.24
2019-05-26T06:54:46.579Z,993.25
2019-05-26T06:55:46.571Z,993.22
2019-05-26T06:56:46.582Z,993.24
2019-05-26T06:57:46.547Z,993.24
2019-05-26T06:58:46.544Z,993.18
2019-05-26T06:59:46.527Z,993.19
2019-05-26T07:00:46.513Z,993.13
2019-05-26T07:01:46.534Z,993.20
2019-05-26T07:02:46.505Z,993.16
2019-05-26T07:03:46.511Z,993.20
2019-05-26T07:04:46.466Z,993.22
2019-05-26T07:05:46.453Z,993.15
2019-05-26T07:06:46.484Z,993.13
2019-05-26T07:07:46.445Z,993.13
2019-05-26T07:08:46.435Z,993.07
2019-05-26T07:09:46.438Z,993.08
2019-05-26T07:10:46.416Z,993.13
2019-05-26T07:11:54.208Z,993.18
2019-05-26T07:12:47.398Z,993.16
2019-05-26T07:13:46.388Z,993.22
2019-05-26T07:14:46.377Z,993.19
2019-05-26T07:15:46.367Z,993.21
2019-05-26T07:16:46.408Z,993.23
2019-05-26T07:17:46.379Z,993.24
2019-05-26T07:18:46.338Z,993.27
2019-05-26T07:19:46.329Z,993.26
2019-05-26T07:20:46.328Z,993.26
2019-05-26T07:21:46.356Z,993.27
2019-05-26T07:22:46.312Z,993.28
2019-05-26T07:23:46.300Z,993.28
2019-05-26T07:24:46.287Z,993.25
2019-05-26T07:25:46.315Z,993.31
2019-05-26T07:26:46.289Z,993.29
2019-05-26T07:27:46.253Z,993.26
2019-05-26T07:28:46.253Z,993.28
2019-05-26T07:29:46.228Z,993.29
2019-05-26T07:30:46.240Z,993.26
2019-05-26T07:31:46.212Z,993.28
2019-05-26T07:32:46.227Z,993.29
2019-05-26T07:33:46.200Z,993.29
2019-05-26T07:34:46.176Z,993.31
2019-05-26T07:35:49.676Z,993.26
2019-05-26T07:36:46.186Z,993.26
2019-05-26T07:37:46.190Z,993.20
2019-05-26T07:38:46.146Z,993.28
2019-05-26T07:39:46.159Z,993.29
2019-05-26T07:40:46.121Z,993.31
2019-05-26T07:41:46.109Z,993.31
2019-05-26T07:42:46.155Z,993.35
2019-05-26T07:43:46.090Z,993.31
2019-05-26T07:44:46.105Z,993.30
2019-05-26T07:45:46.083Z,993.25
2019-05-26T07:46:46.066Z,993.29
2019-05-26T07:47:46.088Z,993.34
2019-05-26T07:48:46.048Z,993.27
2019-05-26T07:49:46.057Z,993.25
2019-05-26T07:50:46.038Z,993.35
2019-05-26T07:51:46.020Z,993.33
2019-05-26T07:52:46.022Z,993.33
2019-05-26T07:53:45.996Z,993.30
2019-05-26T07:54:45.992Z,993.27
2019-05-26T07:55:45.978Z,993.30
2019-05-26T07:56:46.000Z,993.31
2019-05-26T07:57:46.008Z,993.31
2019-05-26T07:58:45.968Z,993.32
2019-05-26T07:59:45.967Z,993.35
2019-05-26T08:00:45.958Z,993.32
2019-05-26T08:01:45.928Z,993.31
2019-05-26T08:02:45.949Z,993.25
2019-05-26T08:03:45.912Z,993.22
2019-05-26T08:04:45.899Z,993.22
2019-05-26T08:05:45.898Z,993.25
2019-05-26T08:06:45.950Z,993.30
2019-05-26T08:07:45.935Z,993.27
2019-05-26T08:08:45.867Z,993.31
2019-05-26T08:09:45.854Z,993.30
2019-05-26T08:10:45.837Z,993.23
2019-05-26T08:11:45.836Z,993.23
2019-05-26T08:12:45.871Z,993.23
2019-05-26T08:13:45.848Z,993.27
2019-05-26T08:14:45.808Z,993.20
2019-05-26T08:15:45.807Z,993.22
2019-05-26T08:16:45.821Z,993.20
2019-05-26T08:17:45.793Z,993.16
2019-05-26T08:18:45.782Z,993.12
2019-05-26T08:19:45.764Z,993.16
2019-05-26T08:20:45.769Z,993.15
2019-05-26T08:21:45.752Z,993.08
2019-05-26T08:22:45.765Z,993.04
2019-05-26T08:23:45.728Z,993.05
2019-05-26T08:24:45.700Z,993.14
2019-05-26T08:25:45.708Z,993.08
2019-05-26T08:26:45.709Z,993.04
2019-05-26T08:27:45.724Z,993.04
2019-05-26T08:28:45.695Z,992.97
2019-05-26T08:29:45.673Z,993.01
2019-05-26T08:30:45.693Z,993.04
2019-05-26T08:31:45.658Z,993.12
2019-05-26T08:32:45.670Z,993.09
2019-05-26T08:33:45.640Z,993.14
2019-05-26T08:34:45.645Z,993.09
2019-05-26T08:35:45.670Z,993.07
2019-05-26T08:36:45.603Z,992.99
2019-05-26T08:37:45.642Z,993.01
2019-05-26T08:38:45.598Z,993.06
2019-05-26T08:39:48.281Z,992.93
2019-05-26T08:40:45.583Z,992.90
2019-05-26T08:41:45.559Z,992.99
2019-05-26T08:42:45.583Z,993.03
2019-05-26T08:43:45.547Z,992.99
2019-05-26T08:44:45.560Z,992.99
2019-05-26T08:45:45.538Z,992.90
2019-05-26T08:46:45.509Z,992.97
2019-05-26T08:47:45.529Z,993.00
2019-05-26T08:48:45.532Z,992.97
2019-05-26T08:49:45.498Z,992.96
2019-05-26T08:50:45.485Z,992.96
2019-05-26T08:51:45.475Z,992.98
2019-05-26T08:52:45.477Z,992.94
2019-05-26T08:53:45.483Z,993.01
2019-05-26T08:54:45.446Z,992.94
2019-05-26T08:55:45.426Z,992.96
2019-05-26T08:56:45.418Z,992.92
2019-05-26T08:57:45.419Z,992.75
2019-05-26T08:58:45.442Z,992.87
2019-05-26T08:59:45.405Z,992.72
2019-05-26T09:00:45.391Z,992.90
2019-05-26T09:01:45.381Z,992.88
2019-05-26T09:02:45.379Z,992.93
2019-05-26T09:03:45.381Z,992.66
2019-05-26T09:04:45.361Z,992.75
2019-05-26T09:05:45.355Z,992.98
2019-05-26T09:06:45.365Z,992.93
2019-05-26T09:07:45.341Z,992.85
2019-05-26T09:08:45.344Z,992.90
2019-05-26T09:09:45.324Z,992.91
2019-05-26T09:10:45.290Z,992.82
2019-05-26T09:11:45.287Z,992.90
2019-05-26T09:12:59.585Z,992.87
2019-05-26T09:13:46.292Z,992.84
2019-05-26T09:14:45.285Z,992.87
2019-05-26T09:15:45.251Z,992.78
2019-05-26T09:16:45.271Z,992.87
2019-05-26T09:17:45.219Z,992.81
2019-05-26T09:18:45.252Z,992.83
2019-05-26T09:19:45.228Z,992.80
2019-05-26T09:20:45.219Z,992.77
2019-05-26T09:21:45.217Z,992.74
2019-05-26T09:22:45.218Z,992.69
2019-05-26T09:23:45.211Z,992.72
2019-05-26T09:24:45.171Z,992.73
2019-05-26T09:25:46.680Z,992.69
2019-05-26T09:26:45.177Z,992.68
2019-05-26T09:27:45.156Z,992.65
2019-05-26T09:28:45.172Z,992.64
2019-05-26T09:29:45.127Z,992.67
2019-05-26T09:30:45.119Z,992.73
2019-05-26T09:31:45.101Z,992.65
2019-05-26T09:32:45.098Z,992.67
2019-05-26T09:33:45.136Z,992.65
2019-05-26T09:34:45.108Z,992.63
2019-05-26T09:35:45.090Z,992.64
2019-05-26T09:36:45.059Z,992.58
2019-05-26T09:37:45.085Z,992.63
2019-05-26T09:38:45.079Z,992.61
2019-05-26T09:39:45.055Z,992.57
2019-05-26T09:40:45.019Z,992.60
2019-05-26T09:41:45.044Z,992.56
2019-05-26T09:42:45.004Z,992.57
2019-05-26T09:43:45.054Z,992.57
2019-05-26T09:44:44.998Z,992.56
2019-05-26T09:45:45.000Z,992.64
2019-05-26T09:46:44.964Z,992.62
2019-05-26T09:47:44.990Z,992.61
2019-05-26T09:48:44.992Z,992.58
2019-05-26T09:49:44.932Z,992.53
2019-05-26T09:50:44.955Z,992.56
2019-05-26T09:51:44.933Z,992.58
2019-05-26T09:52:44.924Z,992.54
2019-05-26T09:53:44.937Z,992.51
2019-05-26T09:54:44.901Z,992.55
2019-05-26T09:55:44.891Z,992.60
2019-05-26T09:56:44.882Z,992.55
2019-05-26T09:57:44.871Z,992.51
2019-05-26T09:58:44.909Z,992.55
2019-05-26T09:59:44.859Z,992.47
2019-05-26T10:00:44.849Z,992.45
2019-05-26T10:01:44.828Z,992.52
2019-05-26T10:02:44.826Z,992.50
2019-05-26T10:03:44.839Z,992.49
2019-05-26T10:04:44.815Z,992.45
2019-05-26T10:05:44.796Z,992.46
2019-05-26T10:06:44.791Z,992.40
2019-05-26T10:07:44.843Z,992.48
2019-05-26T10:08:44.790Z,992.39
2019-05-26T10:09:44.753Z,992.42
2019-05-26T10:10:44.731Z,992.43
2019-05-26T10:11:44.760Z,992.34
2019-05-26T10:12:44.748Z,992.44
2019-05-26T10:13:44.749Z,992.41
2019-05-26T10:14:47.679Z,992.38
2019-05-26T10:15:44.697Z,992.36
2019-05-26T10:16:44.686Z,992.41
2019-05-26T10:17:44.670Z,992.27
2019-05-26T10:18:44.692Z,992.33
2019-05-26T10:19:44.665Z,992.29
2019-05-26T10:20:44.652Z,992.34
2019-05-26T10:21:44.661Z,992.23
2019-05-26T10:22:44.659Z,992.31
2019-05-26T10:23:44.625Z,992.31
2019-05-26T10:24:44.649Z,992.29
2019-05-26T10:25:44.614Z,992.24
2019-05-26T10:26:44.591Z,992.25
2019-05-26T10:27:44.581Z,992.24
2019-05-26T10:28:44.584Z,992.21
2019-05-26T10:29:44.583Z,992.25
2019-05-26T10:30:44.560Z,992.16
2019-05-26T10:31:44.543Z,992.25
2019-05-26T10:32:44.533Z,992.20
2019-05-26T10:33:44.501Z,992.20
2019-05-26T10:34:44.559Z,992.22
2019-05-26T10:35:44.504Z,992.24
2019-05-26T10:36:44.498Z,992.20
2019-05-26T10:37:44.484Z,992.17
2019-05-26T10:38:44.473Z,992.10
2019-05-26T10:39:45.283Z,992.20
2019-05-26T10:40:44.453Z,992.21
2019-05-26T10:41:44.457Z,992.18
2019-05-26T10:42:44.435Z,992.12
2019-05-26T10:43:47.470Z,992.18
2019-05-26T10:44:44.446Z,992.13
2019-05-26T10:45:44.441Z,992.14
2019-05-26T10:46:44.405Z,992.11
2019-05-26T10:47:44.392Z,992.09
2019-05-26T10:48:44.446Z,992.11
2019-05-26T10:49:44.404Z,992.10
2019-05-26T10:50:44.355Z,992.08
2019-05-26T10:51:44.375Z,992.13
2019-05-26T10:52:44.335Z,992.08
2019-05-26T10:53:44.333Z,992.07
2019-05-26T10:54:44.336Z,991.96
2019-05-26T10:55:44.306Z,992.02
2019-05-26T10:56:44.302Z,991.94
2019-05-26T10:57:44.313Z,991.93
2019-05-26T10:58:44.282Z,992.02
2019-05-26T10:59:44.324Z,991.99
2019-05-26T11:00:44.265Z,991.92
2019-05-26T11:01:44.281Z,991.89
2019-05-26T11:02:44.238Z,991.90
2019-05-26T11:03:44.235Z,991.86
2019-05-26T11:04:44.245Z,991.88
2019-05-26T11:05:44.229Z,991.91
2019-05-26T11:06:44.249Z,991.91
2019-05-26T11:07:44.184Z,991.81
2019-05-26T11:08:44.168Z,991.89
2019-05-26T11:09:44.203Z,991.90
2019-05-26T11:10:44.164Z,991.91
2019-05-26T11:11:44.155Z,991.84
2019-05-26T11:12:44.175Z,991.92
2019-05-26T11:13:44.128Z,991.89
2019-05-26T11:14:44.153Z,991.86
2019-05-26T11:15:44.115Z,991.88
2019-05-26T11:16:44.140Z,991.89
2019-05-26T11:17:44.113Z,991.84
2019-05-26T11:18:44.121Z,991.81
2019-05-26T11:19:44.120Z,991.80
2019-05-26T11:20:44.050Z,991.77
2019-05-26T11:21:44.076Z,991.73
2019-05-26T11:22:44.039Z,991.73
2019-05-26T11:23:44.062Z,991.75
2019-05-26T11:24:44.035Z,991.79
2019-05-26T11:25:44.040Z,991.76
2019-05-26T11:26:43.991Z,991.75
2019-05-26T11:27:43.999Z,991.71
2019-05-26T11:28:43.979Z,991.72
2019-05-26T11:29:43.987Z,991.67
2019-05-26T11:30:43.984Z,991.68
2019-05-26T11:31:43.940Z,991.68
2019-05-26T11:32:43.970Z,991.69
2019-05-26T11:33:43.918Z,991.65
2019-05-26T11:34:43.940Z,991.66
2019-05-26T11:35:43.928Z,991.69
2019-05-26T11:36:43.879Z,991.62
2019-05-26T11:37:43.860Z,991.64
2019-05-26T11:38:43.896Z,991.63
2019-05-26T11:39:43.864Z,991.62
2019-05-26T11:40:43.870Z,991.65
2019-05-26T11:41:43.819Z,991.67
2019-05-26T11:42:45.043Z,991.64
2019-05-26T11:43:43.815Z,991.62
2019-05-26T11:44:43.799Z,991.63
2019-05-26T11:45:43.815Z,991.64
2019-05-26T11:46:43.819Z,991.62
2019-05-26T11:47:43.777Z,991.55
2019-05-26T11:48:43.738Z,991.61
2019-05-26T11:49:43.758Z,991.62
2019-05-26T11:50:43.751Z,991.59
2019-05-26T11:51:43.730Z,991.56
2019-05-26T11:52:43.720Z,991.52
2019-05-26T11:53:43.707Z,991.56
2019-05-26T11:54:43.697Z,991.56
2019-05-26T11:55:43.711Z,991.52
2019-05-26T11:56:43.674Z,991.56
2019-05-26T11:57:43.648Z,991.54
2019-05-26T11:58:43.658Z,991.51
2019-05-26T11:59:47.135Z,991.48
2019-05-26T12:00:43.651Z,991.52
2019-05-26T12:01:43.610Z,991.52
2019-05-26T12:02:43.621Z,991.51
2019-05-26T12:03:43.634Z,991.51
2019-05-26T12:04:43.596Z,991.46
2019-05-26T12:05:43.611Z,991.49
2019-05-26T12:06:43.588Z,991.46
2019-05-26T12:07:43.545Z,991.49
2019-05-26T12:08:43.539Z,991.43
2019-05-26T12:09:43.539Z,991.39
2019-05-26T12:10:43.538Z,991.43
2019-05-26T12:11:43.517Z,991.42
2019-05-26T12:12:43.497Z,991.48
2019-05-26T12:13:43.482Z,991.39
2019-05-26T12:14:43.514Z,991.48
2019-05-26T12:15:43.469Z,991.45
2019-05-26T12:16:43.519Z,991.39
2019-05-26T12:17:43.459Z,991.40
2019-05-26T12:18:43.448Z,991.36
2019-05-26T12:19:43.423Z,991.27
2019-05-26T12:20:43.431Z,991.31
2019-05-26T12:21:43.432Z,991.29
2019-05-26T12:22:43.384Z,991.23
2019-05-26T12:23:43.366Z,991.30
2019-05-26T12:24:43.410Z,991.30
2019-05-26T12:25:43.360Z,991.26
2019-05-26T12:26:43.378Z,991.32
2019-05-26T12:27:43.336Z,991.26
2019-05-26T12:28:43.331Z,991.32